Time;durP1;ratioP1;P1;durP2;ratioP2;P2;SDS_P1;SDS_P2;PMS_P1;PMS_P2;Temp;Humidity;BMP_temperature;BMP_pressure;BME280_temperature;BME280_humidity;BME280_pressure;Samples;Min_cycle;Max_cycle;Signal;HPM_P1;HPM_P2
2022/10/06 00:01:01;;;;;;;15.25;4.32;;;;;;;;;;5090523;28;20507;-57
2022/10/06 00:03:27;;;;;;;14.13;4.65;;;;;;;;;;5094033;28;20039;-57
2022/10/06 00:05:57;;;;;;;13.32;4.55;;;;;;;;;;5089736;28;20047;-57
2022/10/06 00:08:22;;;;;;;6.70;3.38;;;;;;;;;;5092307;28;20136;-57
2022/10/06 00:10:47;;;;;;;8.00;3.00;;;;;;;;;;5090569;28;20023;-57
2022/10/06 00:13:12;;;;;;;9.73;3.03;;;;;;;;;;5090195;28;20016;-57
2022/10/06 00:15:38;;;;;;;5.97;2.30;;;;;;;;;;5079970;28;20445;-57
2022/10/06 00:18:03;;;;;;;5.78;2.42;;;;;;;;;;5091281;28;20430;-57
2022/10/06 00:20:28;;;;;;;5.03;1.60;;;;;;;;;;5090289;28;20027;-57
2022/10/06 00:22:55;;;;;;;5.05;1.48;;;;;;;;;;5088252;28;20084;-58
2022/10/06 00:25:20;;;;;;;3.70;1.33;;;;;;;;;;5091091;28;20460;-57
2022/10/06 00:27:46;;;;;;;3.63;1.30;;;;;;;;;;5095036;28;20016;-57
2022/10/06 00:30:14;;;;;;;3.70;1.48;;;;;;;;;;5094940;28;20027;-57
2022/10/06 00:32:39;;;;;;;4.05;1.40;;;;;;;;;;5093826;28;20031;-57
2022/10/06 00:35:05;;;;;;;2.63;1.30;;;;;;;;;;5085976;28;20114;-57
2022/10/06 00:37:33;;;;;;;4.18;1.17;;;;;;;;;;5087615;28;20055;-57
2022/10/06 00:39:58;;;;;;;2.42;0.98;;;;;;;;;;5090289;28;20032;-57
2022/10/06 00:42:24;;;;;;;7.57;1.60;;;;;;;;;;5096103;28;20020;-57
2022/10/06 00:44:49;;;;;;;3.67;0.98;;;;;;;;;;5083547;28;20020;-57
2022/10/06 00:47:15;;;;;;;4.55;1.17;;;;;;;;;;5091780;28;20027;-57
2022/10/06 00:49:40;;;;;;;2.80;1.10;;;;;;;;;;5090647;28;20017;-57
2022/10/06 00:52:06;;;;;;;4.93;1.30;;;;;;;;;;5092713;28;20054;-57
2022/10/06 00:54:32;;;;;;;4.00;1.20;;;;;;;;;;5092308;28;20016;-57
2022/10/06 00:56:57;;;;;;;5.57;1.20;;;;;;;;;;5090455;28;20134;-57
2022/10/06 00:59:22;;;;;;;5.43;1.10;;;;;;;;;;5084104;28;20378;-57
2022/10/06 01:01:50;;;;;;;1.70;0.82;;;;;;;;;;5089869;28;20028;-58
2022/10/06 01:04:16;;;;;;;2.65;1.27;;;;;;;;;;5086228;28;20315;-57
2022/10/06 01:06:46;;;;;;;4.38;1.00;;;;;;;;;;5087713;28;20397;-57
2022/10/06 01:09:12;;;;;;;4.47;1.17;;;;;;;;;;5094949;28;20015;-56
2022/10/06 01:11:37;;;;;;;5.82;1.25;;;;;;;;;;5090958;28;20023;-57
2022/10/06 01:14:03;;;;;;;3.65;0.98;;;;;;;;;;5098137;28;20036;-56
2022/10/06 01:16:28;;;;;;;3.47;1.20;;;;;;;;;;5085761;28;20030;-56
2022/10/06 01:18:53;;;;;;;4.90;1.60;;;;;;;;;;5092014;28;20461;-56
2022/10/06 01:21:19;;;;;;;3.70;1.30;;;;;;;;;;5100780;28;20026;-57
2022/10/06 01:23:44;;;;;;;4.65;1.27;;;;;;;;;;5090250;28;20497;-57
2022/10/06 01:26:09;;;;;;;6.85;1.48;;;;;;;;;;5092849;28;20643;-57
2022/10/06 01:28:35;;;;;;;5.25;1.35;;;;;;;;;;5091520;28;20012;-56
2022/10/06 01:31:00;;;;;;;6.45;1.38;;;;;;;;;;5093914;28;20036;-58
2022/10/06 01:33:25;;;;;;;2.83;1.15;;;;;;;;;;5098470;28;20088;-58
2022/10/06 01:35:51;;;;;;;5.30;1.60;;;;;;;;;;5095842;28;20027;-58
2022/10/06 01:38:16;;;;;;;7.65;1.27;;;;;;;;;;5090442;28;20378;-57
2022/10/06 01:40:42;;;;;;;3.67;1.25;;;;;;;;;;5069088;28;20051;-57
2022/10/06 01:43:07;;;;;;;3.08;1.30;;;;;;;;;;5091995;28;20020;-57
2022/10/06 01:45:33;;;;;;;3.30;1.23;;;;;;;;;;5093656;28;20038;-57
2022/10/06 01:47:58;;;;;;;4.38;1.30;;;;;;;;;;5094019;28;20095;-57
2022/10/06 01:50:23;;;;;;;9.20;1.60;;;;;;;;;;5094414;28;20412;-57
2022/10/06 01:52:48;;;;;;;5.63;1.20;;;;;;;;;;5095962;28;20458;-57
2022/10/06 01:55:14;;;;;;;4.57;1.40;;;;;;;;;;5092197;28;20015;-57
2022/10/06 01:57:42;;;;;;;4.43;1.30;;;;;;;;;;5089403;28;20103;-57
2022/10/06 02:00:07;;;;;;;3.80;1.20;;;;;;;;;;5094690;28;20028;-57
2022/10/06 02:02:33;;;;;;;4.60;1.60;;;;;;;;;;5090911;28;20096;-57
2022/10/06 02:04:58;;;;;;;3.28;1.58;;;;;;;;;;5091335;28;20221;-58
2022/10/06 02:07:23;;;;;;;3.20;1.30;;;;;;;;;;5097351;28;20012;-57
2022/10/06 02:09:48;;;;;;;3.08;1.20;;;;;;;;;;5092302;28;20103;-57
2022/10/06 02:12:14;;;;;;;4.82;1.48;;;;;;;;;;5092161;28;20513;-57
2022/10/06 02:14:40;;;;;;;5.65;1.30;;;;;;;;;;5086949;28;20028;-57
2022/10/06 02:17:05;;;;;;;4.50;1.48;;;;;;;;;;5091274;28;20028;-57
2022/10/06 02:19:31;;;;;;;10.52;1.60;;;;;;;;;;5087049;28;20020;-57
2022/10/06 02:21:57;;;;;;;4.70;1.50;;;;;;;;;;5097200;28;20016;-57
2022/10/06 02:24:22;;;;;;;5.80;1.40;;;;;;;;;;5088265;28;20127;-57
2022/10/06 02:26:47;;;;;;;5.15;1.60;;;;;;;;;;5092241;28;20099;-56
2022/10/06 02:29:12;;;;;;;8.40;1.50;;;;;;;;;;5095965;28;20100;-56
2022/10/06 02:31:38;;;;;;;7.95;1.45;;;;;;;;;;5091484;28;20080;-57
2022/10/06 02:34:03;;;;;;;10.82;1.70;;;;;;;;;;5088967;28;20027;-56
2022/10/06 02:36:28;;;;;;;8.77;1.83;;;;;;;;;;5089184;28;20035;-58
2022/10/06 02:38:53;;;;;;;11.38;1.77;;;;;;;;;;5092720;28;20424;-57
2022/10/06 02:41:19;;;;;;;6.75;1.58;;;;;;;;;;5095745;28;20564;-57
2022/10/06 02:43:44;;;;;;;8.32;1.83;;;;;;;;;;5104159;27;20031;-57
2022/10/06 02:46:10;;;;;;;8.70;1.73;;;;;;;;;;5095144;28;20272;-57
2022/10/06 02:48:36;;;;;;;7.70;1.70;;;;;;;;;;5094517;28;20022;-57
2022/10/06 02:51:02;;;;;;;11.13;1.95;;;;;;;;;;5092187;28;20115;-57
2022/10/06 02:53:27;;;;;;;11.02;1.90;;;;;;;;;;5092789;28;20098;-57
2022/10/06 02:55:56;;;;;;;8.05;2.10;;;;;;;;;;5088786;28;20020;-57
2022/10/06 02:58:21;;;;;;;14.82;2.00;;;;;;;;;;5089576;28;20098;-57
2022/10/06 03:00:46;;;;;;;12.63;2.53;;;;;;;;;;5079133;28;20510;-57
2022/10/06 03:03:12;;;;;;;10.73;2.15;;;;;;;;;;5083299;28;20028;-57
2022/10/06 03:05:37;;;;;;;9.73;1.98;;;;;;;;;;5085216;28;20039;-57
2022/10/06 03:08:02;;;;;;;11.45;2.03;;;;;;;;;;5085457;28;20023;-57
2022/10/06 03:10:27;;;;;;;9.50;2.40;;;;;;;;;;5086809;28;20489;-58
2022/10/06 03:12:53;;;;;;;10.60;1.90;;;;;;;;;;5086230;28;20378;-57
2022/10/06 03:15:19;;;;;;;9.15;2.10;;;;;;;;;;5084090;28;20008;-57
2022/10/06 03:17:47;;;;;;;10.82;2.10;;;;;;;;;;5079200;28;20256;-57
2022/10/06 03:20:12;;;;;;;8.23;1.40;;;;;;;;;;5078379;28;20024;-57
2022/10/06 03:22:37;;;;;;;6.93;2.00;;;;;;;;;;5074481;28;20969;-57
2022/10/06 03:25:03;;;;;;;7.97;1.80;;;;;;;;;;5088348;28;20046;-57
2022/10/06 03:27:28;;;;;;;10.23;2.00;;;;;;;;;;5080509;28;20603;-57
2022/10/06 03:29:53;;;;;;;9.50;1.95;;;;;;;;;;5085317;28;20432;-56
2022/10/06 03:32:19;;;;;;;9.98;2.15;;;;;;;;;;5091732;28;20016;-56
2022/10/06 03:34:45;;;;;;;12.18;2.35;;;;;;;;;;5084336;28;20073;-57
2022/10/06 03:37:10;;;;;;;11.48;2.25;;;;;;;;;;5085186;28;20028;-57
2022/10/06 03:39:36;;;;;;;4.82;1.60;;;;;;;;;;5091544;28;20061;-56
2022/10/06 03:42:01;;;;;;;13.23;2.28;;;;;;;;;;5085079;28;20028;-56
2022/10/06 03:44:26;;;;;;;6.68;2.10;;;;;;;;;;5089017;28;20035;-56
2022/10/06 03:46:51;;;;;;;12.02;2.10;;;;;;;;;;5093564;28;20065;-56
2022/10/06 03:49:17;;;;;;;12.15;2.53;;;;;;;;;;5089079;28;20051;-55
2022/10/06 03:51:42;;;;;;;8.35;2.10;;;;;;;;;;5085093;28;20051;-55
2022/10/06 03:54:09;;;;;;;14.65;2.15;;;;;;;;;;5091321;28;20077;-57
2022/10/06 03:56:35;;;;;;;10.45;2.08;;;;;;;;;;5086392;28;20020;-56
2022/10/06 03:59:01;;;;;;;12.75;2.17;;;;;;;;;;5080655;28;20267;-56
2022/10/06 04:01:30;;;;;;;9.13;2.05;;;;;;;;;;5087885;28;20020;-56
2022/10/06 04:03:56;;;;;;;10.68;1.95;;;;;;;;;;5089240;28;20636;-56
2022/10/06 04:06:21;;;;;;;11.80;2.03;;;;;;;;;;5093867;28;20027;-56
2022/10/06 04:08:47;;;;;;;11.43;2.05;;;;;;;;;;5084302;28;20532;-56
2022/10/06 04:11:13;;;;;;;10.70;2.40;;;;;;;;;;5081511;28;20032;-56
2022/10/06 04:13:38;;;;;;;9.27;2.20;;;;;;;;;;5078363;28;20470;-59
2022/10/06 04:16:20;;;;;;;8.88;1.98;;;;;;;;;;5082736;28;20022;-56
2022/10/06 04:18:47;;;;;;;6.75;1.90;;;;;;;;;;5089336;28;20481;-57
2022/10/06 04:21:12;;;;;;;6.20;1.90;;;;;;;;;;5090908;28;20036;-56
2022/10/06 04:23:38;;;;;;;7.68;2.13;;;;;;;;;;5089278;28;20066;-58
2022/10/06 04:26:09;;;;;;;18.27;2.95;;;;;;;;;;5086720;28;20120;-56
2022/10/06 04:28:36;;;;;;;9.45;2.00;;;;;;;;;;5088663;28;20030;-56
2022/10/06 04:31:02;;;;;;;12.65;2.38;;;;;;;;;;5083069;28;20351;-56
2022/10/06 04:33:27;;;;;;;10.45;1.90;;;;;;;;;;5093840;28;20117;-56
2022/10/06 04:35:56;;;;;;;13.00;1.80;;;;;;;;;;5090591;28;20530;-56
2022/10/06 04:38:22;;;;;;;10.77;2.38;;;;;;;;;;5084806;28;20108;-56
2022/10/06 04:40:47;;;;;;;10.20;2.10;;;;;;;;;;5089004;28;20107;-56
2022/10/06 04:43:12;;;;;;;12.90;2.42;;;;;;;;;;5099349;28;20024;-55
2022/10/06 04:45:37;;;;;;;10.48;2.40;;;;;;;;;;5090596;28;20047;-56
2022/10/06 04:48:03;;;;;;;8.68;2.40;;;;;;;;;;5094894;28;20016;-56
2022/10/06 04:50:28;;;;;;;9.65;2.40;;;;;;;;;;5091230;28;20478;-58
2022/10/06 04:52:53;;;;;;;12.32;2.83;;;;;;;;;;5093248;28;20008;-57
2022/10/06 04:55:18;;;;;;;12.00;2.25;;;;;;;;;;5092400;28;20103;-58
2022/10/06 04:57:44;;;;;;;14.18;2.80;;;;;;;;;;5085683;28;20020;-59
2022/10/06 05:00:21;;;;;;;8.55;2.22;;;;;;;;;;5087611;28;20028;-59
2022/10/06 05:02:46;;;;;;;14.27;2.58;;;;;;;;;;5077715;28;20020;-57
2022/10/06 05:05:12;;;;;;;12.50;2.65;;;;;;;;;;5080485;28;20563;-57
2022/10/06 05:07:37;;;;;;;8.35;3.20;;;;;;;;;;5076682;28;20103;-57
2022/10/06 05:10:02;;;;;;;13.20;2.42;;;;;;;;;;5083051;28;20028;-56
2022/10/06 05:12:30;;;;;;;15.55;2.50;;;;;;;;;;5085152;28;20089;-57
2022/10/06 05:14:55;;;;;;;12.02;2.40;;;;;;;;;;5077339;28;20474;-57
2022/10/06 05:17:20;;;;;;;17.67;3.80;;;;;;;;;;5094641;28;20020;-56
2022/10/06 05:19:46;;;;;;;10.60;2.53;;;;;;;;;;5086957;28;20093;-56
2022/10/06 05:22:11;;;;;;;15.18;2.60;;;;;;;;;;5082552;28;20031;-56
2022/10/06 05:24:36;;;;;;;13.98;2.70;;;;;;;;;;5081468;28;20073;-57
2022/10/06 05:27:02;;;;;;;10.93;2.90;;;;;;;;;;5082980;28;20063;-55
2022/10/06 05:29:28;;;;;;;12.73;2.60;;;;;;;;;;5087650;28;20103;-57
2022/10/06 05:31:54;;;;;;;13.75;2.58;;;;;;;;;;5082398;28;20643;-56
2022/10/06 05:34:20;;;;;;;12.40;2.40;;;;;;;;;;5083546;28;20031;-56
2022/10/06 05:36:46;;;;;;;14.88;2.75;;;;;;;;;;5090470;28;20023;-57
2022/10/06 05:39:11;;;;;;;13.25;2.67;;;;;;;;;;5088235;28;20024;-57
2022/10/06 05:41:37;;;;;;;13.27;2.75;;;;;;;;;;5086867;28;20017;-57
2022/10/06 05:44:02;;;;;;;13.13;2.88;;;;;;;;;;5091939;28;20452;-55
2022/10/06 05:46:28;;;;;;;16.48;2.95;;;;;;;;;;5091944;28;20030;-57
2022/10/06 05:48:54;;;;;;;10.63;2.50;;;;;;;;;;5091025;28;20033;-57
2022/10/06 05:51:19;;;;;;;15.77;2.75;;;;;;;;;;5095028;28;20035;-61
2022/10/06 05:53:44;;;;;;;16.90;2.90;;;;;;;;;;5087314;28;20413;-57
2022/10/06 05:56:29;;;;;;;13.23;2.65;;;;;;;;;;5094104;28;20107;-56
2022/10/06 05:58:54;;;;;;;11.45;2.45;;;;;;;;;;5099328;28;20039;-58
2022/10/06 06:01:19;;;;;;;14.85;2.58;;;;;;;;;;5089509;28;20028;-57
2022/10/06 06:03:48;;;;;;;14.05;3.00;;;;;;;;;;5090077;28;20044;-58
2022/10/06 06:06:23;;;;;;;13.75;2.55;;;;;;;;;;5087626;28;20036;-57
2022/10/06 06:08:53;;;;;;;17.10;3.03;;;;;;;;;;5087762;28;20209;-57
2022/10/06 06:11:24;;;;;;;22.77;2.70;;;;;;;;;;5089138;28;20043;-57
2022/10/06 06:13:49;;;;;;;12.40;2.45;;;;;;;;;;5092631;28;20043;-57
2022/10/06 06:16:14;;;;;;;11.30;2.60;;;;;;;;;;5087700;28;20054;-57
2022/10/06 06:18:39;;;;;;;18.35;2.70;;;;;;;;;;5089162;28;20543;-56
2022/10/06 06:21:05;;;;;;;13.30;2.40;;;;;;;;;;5091938;28;20532;-58
2022/10/06 06:23:31;;;;;;;15.07;2.40;;;;;;;;;;5091611;28;20028;-57
2022/10/06 06:25:57;;;;;;;8.73;2.20;;;;;;;;;;5093355;28;20043;-57
2022/10/06 06:28:23;;;;;;;9.77;2.10;;;;;;;;;;5090682;28;20012;-56
2022/10/06 06:30:48;;;;;;;11.73;2.35;;;;;;;;;;5087048;28;20401;-57
2022/10/06 06:33:13;;;;;;;18.42;2.47;;;;;;;;;;5086931;28;20020;-57
2022/10/06 06:35:38;;;;;;;11.48;2.08;;;;;;;;;;5088000;28;20020;-58
2022/10/06 06:38:10;;;;;;;9.85;2.38;;;;;;;;;;5099766;28;20032;-55
2022/10/06 06:40:38;;;;;;;17.42;2.55;;;;;;;;;;5104830;27;20027;-56
2022/10/06 06:43:04;;;;;;;13.20;2.42;;;;;;;;;;5087867;28;20039;-57
2022/10/06 06:45:29;;;;;;;11.32;2.38;;;;;;;;;;5090760;28;20028;-57
2022/10/06 06:47:55;;;;;;;11.43;3.03;;;;;;;;;;5093604;28;20498;-57
2022/10/06 06:50:20;;;;;;;16.98;2.88;;;;;;;;;;5093643;28;20635;-56
2022/10/06 06:52:45;;;;;;;13.50;2.38;;;;;;;;;;5090099;28;20388;-57
2022/10/06 06:55:10;;;;;;;14.20;2.40;;;;;;;;;;5094425;28;20373;-57
2022/10/06 06:57:36;;;;;;;8.77;2.20;;;;;;;;;;5087464;28;20077;-57
2022/10/06 07:00:04;;;;;;;8.35;2.10;;;;;;;;;;5092689;28;20024;-57
2022/10/06 07:02:30;;;;;;;14.98;2.80;;;;;;;;;;5090132;28;20024;-57
2022/10/06 07:04:55;;;;;;;12.70;2.60;;;;;;;;;;5094491;28;20051;-56
2022/10/06 07:07:20;;;;;;;14.30;2.45;;;;;;;;;;5091195;28;20309;-57
2022/10/06 07:09:46;;;;;;;11.52;2.55;;;;;;;;;;5097060;28;20020;-57
2022/10/06 07:12:11;;;;;;;11.77;2.28;;;;;;;;;;5085056;28;20015;-56
2022/10/06 07:25:05;;;;;;;11.07;2.28;;;;;;;;;;5087924;28;20035;-57
2022/10/06 07:25:33;;;;;;;15.35;2.58;;;;;;;;;;5099176;28;20035;-56
2022/10/06 07:27:59;;;;;;;11.70;2.80;;;;;;;;;;5092962;28;20020;-57
2022/10/06 07:30:25;;;;;;;14.85;2.80;;;;;;;;;;5084926;28;20081;-57
2022/10/06 07:32:50;;;;;;;13.25;2.60;;;;;;;;;;5090728;28;20014;-56
2022/10/06 07:35:16;;;;;;;13.55;2.88;;;;;;;;;;5091167;28;20024;-57
2022/10/06 07:37:41;;;;;;;13.30;2.60;;;;;;;;;;5088616;28;20020;-57
2022/10/06 07:40:07;;;;;;;15.98;3.00;;;;;;;;;;5091468;28;20610;-56
2022/10/06 07:42:46;;;;;;;12.27;2.60;;;;;;;;;;5086450;28;20104;-57
2022/10/06 07:47:57;;;;;;;14.68;2.53;;;;;;;;;;5084783;28;20057;-57
2022/10/06 07:50:24;;;;;;;13.95;3.00;;;;;;;;;;5095326;28;20107;-56
2022/10/06 07:52:50;;;;;;;13.98;2.90;;;;;;;;;;5086517;28;20102;-56
2022/10/06 07:55:17;;;;;;;15.40;2.80;;;;;;;;;;5091377;28;20081;-56
2022/10/06 07:57:45;;;;;;;16.60;3.25;;;;;;;;;;5092976;28;20046;-57
2022/10/06 08:00:11;;;;;;;12.60;2.63;;;;;;;;;;5082123;28;20075;-57
2022/10/06 08:02:37;;;;;;;21.92;3.47;;;;;;;;;;5089500;28;20048;-57
2022/10/06 08:05:03;;;;;;;16.60;3.20;;;;;;;;;;5088876;28;20478;-57
2022/10/06 08:07:28;;;;;;;15.50;3.38;;;;;;;;;;5093126;28;20059;-56
2022/10/06 08:09:53;;;;;;;12.57;2.60;;;;;;;;;;5089807;28;20428;-56
2022/10/06 08:12:36;;;;;;;14.15;2.13;;;;;;;;;;5086511;28;20497;-55
2022/10/06 08:15:05;;;;;;;14.80;2.83;;;;;;;;;;5094664;28;20020;-56
2022/10/06 08:17:30;;;;;;;17.48;2.67;;;;;;;;;;5091543;28;20031;-56
2022/10/06 08:19:56;;;;;;;13.98;2.95;;;;;;;;;;5085846;28;20023;-56
2022/10/06 08:22:26;;;;;;;16.75;3.08;;;;;;;;;;5091458;28;20415;-56
2022/10/06 08:24:53;;;;;;;10.85;2.70;;;;;;;;;;5092020;28;20382;-56
2022/10/06 08:27:18;;;;;;;21.13;3.60;;;;;;;;;;5090679;28;20059;-56
2022/10/06 08:29:43;;;;;;;10.57;2.70;;;;;;;;;;5088888;28;20518;-56
2022/10/06 08:32:09;;;;;;;16.83;3.15;;;;;;;;;;5086358;28;20397;-56
2022/10/06 08:34:35;;;;;;;13.23;2.60;;;;;;;;;;5091106;28;20076;-56
2022/10/06 08:37:02;;;;;;;10.02;3.03;;;;;;;;;;5092321;28;20030;-56
2022/10/06 08:39:29;;;;;;;11.20;2.40;;;;;;;;;;5089248;28;20447;-56
2022/10/06 08:41:54;;;;;;;17.20;3.15;;;;;;;;;;5088548;28;20110;-56
2022/10/06 08:44:22;;;;;;;15.70;3.00;;;;;;;;;;5087597;28;20111;-56
2022/10/06 08:46:59;;;;;;;15.27;3.33;;;;;;;;;;5087794;28;20059;-55
2022/10/06 08:49:24;;;;;;;15.15;2.92;;;;;;;;;;5087055;28;20073;-55
2022/10/06 08:51:59;;;;;;;14.90;2.75;;;;;;;;;;5073375;28;20019;-56
2022/10/06 08:54:41;;;;;;;14.77;2.70;;;;;;;;;;5086080;28;20020;-57
2022/10/06 08:57:09;;;;;;;13.57;2.72;;;;;;;;;;5083654;28;20040;-56
2022/10/06 08:59:34;;;;;;;16.10;3.10;;;;;;;;;;5094278;28;20037;-56
2022/10/06 09:02:05;;;;;;;13.35;2.78;;;;;;;;;;5086543;28;20024;-57
2022/10/06 09:04:30;;;;;;;11.95;2.70;;;;;;;;;;5088328;28;20496;-57
2022/10/06 09:07:25;;;;;;;14.05;2.45;;;;;;;;;;5087066;28;20024;-56
2022/10/06 09:09:53;;;;;;;13.35;2.47;;;;;;;;;;5072982;28;20138;-56
2022/10/06 09:12:27;;;;;;;14.02;2.92;;;;;;;;;;5093901;28;20451;-56
2022/10/06 09:15:01;;;;;;;10.63;2.72;;;;;;;;;;5091411;28;20032;-56
2022/10/06 09:17:29;;;;;;;10.25;2.55;;;;;;;;;;5081234;28;20390;-56
2022/10/06 09:19:54;;;;;;;13.55;2.85;;;;;;;;;;5088774;28;20113;-56
2022/10/06 09:22:20;;;;;;;11.77;2.60;;;;;;;;;;5088410;28;20059;-56
2022/10/06 09:24:49;;;;;;;15.13;2.80;;;;;;;;;;5083259;28;20115;-56
2022/10/06 09:27:17;;;;;;;10.05;2.13;;;;;;;;;;5088786;28;20076;-56
2022/10/06 09:29:42;;;;;;;8.18;2.60;;;;;;;;;;5091812;28;20031;-55
2022/10/06 09:32:09;;;;;;;8.95;2.10;;;;;;;;;;5091759;28;20032;-56
2022/10/06 09:34:39;;;;;;;13.52;2.78;;;;;;;;;;5088832;28;20030;-56
2022/10/06 09:37:09;;;;;;;10.38;2.35;;;;;;;;;;5089127;28;20047;-56
2022/10/06 09:39:37;;;;;;;12.32;2.53;;;;;;;;;;5093058;28;20365;-56
2022/10/06 09:42:09;;;;;;;13.82;2.65;;;;;;;;;;5091357;28;20024;-56
2022/10/06 09:44:48;;;;;;;8.95;2.30;;;;;;;;;;5095800;28;20031;-57
2022/10/06 09:47:14;;;;;;;;;;;;;;;;;;5093852;28;20043;-57
2022/10/06 09:49:40;;;;;;;9.50;2.17;;;;;;;;;;5091732;28;19912;-57
2022/10/06 09:52:13;;;;;;;11.57;2.67;;;;;;;;;;5092839;28;20043;-58
2022/10/06 09:54:40;;;;;;;13.32;2.80;;;;;;;;;;5089390;28;20024;-57
2022/10/06 09:57:07;;;;;;;8.32;2.40;;;;;;;;;;5088596;28;20367;-58
2022/10/06 09:59:36;;;;;;;8.75;2.13;;;;;;;;;;5092694;28;20028;-56
2022/10/06 10:02:03;;;;;;;13.23;3.03;;;;;;;;;;5090084;28;20020;-57
2022/10/06 10:04:31;;;;;;;7.25;2.15;;;;;;;;;;5093935;28;20572;-57
2022/10/06 10:07:23;;;;;;;14.38;2.80;;;;;;;;;;5097748;28;20024;-57
2022/10/06 10:09:48;;;;;;;11.52;2.72;;;;;;;;;;5100272;28;20024;-57
2022/10/06 10:12:31;;;;;;;11.45;2.17;;;;;;;;;;5090496;28;20035;-57
2022/10/06 10:14:56;;;;;;;8.00;2.25;;;;;;;;;;5090516;28;20027;-57
2022/10/06 10:17:31;;;;;;;9.77;2.45;;;;;;;;;;5094549;28;20223;-57
2022/10/06 10:19:56;;;;;;;8.85;2.30;;;;;;;;;;5090834;28;20024;-57
2022/10/06 10:22:34;;;;;;;8.45;2.00;;;;;;;;;;5093091;28;20027;-57
2022/10/06 10:25:03;;;;;;;9.90;2.10;;;;;;;;;;5089942;28;20608;-57
2022/10/06 10:27:50;;;;;;;9.70;2.20;;;;;;;;;;5080655;28;20016;-57
2022/10/06 10:30:15;;;;;;;6.93;1.80;;;;;;;;;;5067546;28;20185;-57
2022/10/06 10:32:47;;;;;;;7.72;2.15;;;;;;;;;;5088438;28;20151;-57
2022/10/06 10:35:21;;;;;;;12.23;2.25;;;;;;;;;;5093052;28;20536;-57
2022/10/06 10:37:51;;;;;;;10.77;2.50;;;;;;;;;;5077427;28;20016;-57
2022/10/06 10:40:20;;;;;;;10.07;2.42;;;;;;;;;;5084857;28;20542;-57
2022/10/06 10:42:51;;;;;;;12.45;2.10;;;;;;;;;;5085617;28;20379;-57
2022/10/06 10:45:17;;;;;;;10.48;2.20;;;;;;;;;;5091981;28;20035;-57
2022/10/06 10:47:43;;;;;;;9.20;2.25;;;;;;;;;;5093402;28;20020;-56
2022/10/06 10:50:11;;;;;;;7.25;2.30;;;;;;;;;;5091786;28;20035;-57
2022/10/06 10:52:40;;;;;;;5.53;1.88;;;;;;;;;;5091775;28;20343;-57
2022/10/06 10:55:25;;;;;;;7.60;2.08;;;;;;;;;;5094200;28;20531;-56
2022/10/06 10:57:50;;;;;;;6.38;2.15;;;;;;;;;;5096076;28;20111;-56
2022/10/06 11:00:16;;;;;;;8.93;2.00;;;;;;;;;;5091596;28;20165;-57
2022/10/06 11:02:41;;;;;;;10.25;2.20;;;;;;;;;;5086235;28;20022;-56
2022/10/06 11:05:25;;;;;;;7.57;1.98;;;;;;;;;;5089813;28;20098;-56
2022/10/06 11:07:51;;;;;;;8.43;2.22;;;;;;;;;;5087192;28;20366;-56
2022/10/06 11:10:17;;;;;;;9.00;2.20;;;;;;;;;;5092178;28;20019;-57
2022/10/06 11:12:42;;;;;;;6.10;1.60;;;;;;;;;;5086041;28;20518;-57
2022/10/06 11:15:14;;;;;;;7.53;2.25;;;;;;;;;;5088504;28;20054;-57
2022/10/06 11:17:45;;;;;;;11.65;2.63;;;;;;;;;;5091845;28;20377;-56
2022/10/06 11:20:29;;;;;;;6.35;1.92;;;;;;;;;;5095644;28;20023;-57
2022/10/06 11:22:57;;;;;;;6.82;2.10;;;;;;;;;;5088205;28;20032;-57
2022/10/06 11:25:29;;;;;;;8.07;2.28;;;;;;;;;;5105120;27;20020;-56
2022/10/06 11:27:57;;;;;;;6.07;1.83;;;;;;;;;;5087647;28;20027;-57
2022/10/06 11:30:25;;;;;;;9.40;1.88;;;;;;;;;;5083373;28;20024;-56
2022/10/06 11:33:00;;;;;;;8.02;1.90;;;;;;;;;;5087933;28;20058;-56
2022/10/06 11:35:26;;;;;;;8.48;2.10;;;;;;;;;;5080057;28;20066;-57
2022/10/06 11:37:59;;;;;;;8.15;2.00;;;;;;;;;;5085337;28;20024;-56
2022/10/06 11:40:35;;;;;;;9.27;2.00;;;;;;;;;;5089334;28;20028;-57
2022/10/06 11:43:00;;;;;;;14.70;2.25;;;;;;;;;;5099723;28;20024;-56
2022/10/06 11:45:58;;;;;;;8.23;2.15;;;;;;;;;;5087962;28;20042;-57
2022/10/06 11:48:30;;;;;;;8.73;2.28;;;;;;;;;;5055897;28;20100;-57
2022/10/06 11:50:56;;;;;;;6.93;1.77;;;;;;;;;;5084239;28;20065;-56
2022/10/06 11:53:33;;;;;;;8.10;1.70;;;;;;;;;;5093501;28;20007;-57
2022/10/06 11:56:14;;;;;;;9.73;1.75;;;;;;;;;;5088112;28;20058;-58
2022/10/06 11:58:54;;;;;;;8.32;2.33;;;;;;;;;;5085756;28;20050;-56
2022/10/06 12:01:38;;;;;;;6.18;2.10;;;;;;;;;;5087437;28;20339;-57
2022/10/06 12:04:06;;;;;;;11.10;2.33;;;;;;;;;;5087888;28;20065;-56
2022/10/06 12:06:40;;;;;;;7.50;2.53;;;;;;;;;;5087623;28;20059;-57
2022/10/06 12:09:31;;;;;;;8.18;1.98;;;;;;;;;;5084613;28;20106;-57
2022/10/06 12:11:57;;;;;;;8.65;1.90;;;;;;;;;;5088213;28;20700;-57
2022/10/06 12:14:26;;;;;;;8.60;1.85;;;;;;;;;;5091414;28;20049;-57
2022/10/06 12:16:53;;;;;;;8.00;1.95;;;;;;;;;;5084183;28;20428;-55
2022/10/06 12:19:37;;;;;;;6.68;1.73;;;;;;;;;;5080867;28;20020;-55
2022/10/06 12:22:07;;;;;;;11.20;2.30;;;;;;;;;;5083912;28;20024;-57
2022/10/06 12:24:37;;;;;;;10.07;2.10;;;;;;;;;;5088151;28;20130;-57
2022/10/06 12:27:03;;;;;;;;;;;;;;;;;;5085462;28;20089;-56
2022/10/06 12:29:28;;;;;;;6.57;1.85;;;;;;;;;;5087573;28;20023;-55
2022/10/06 12:32:12;;;;;;;8.10;1.75;;;;;;;;;;5079449;28;20020;-56
2022/10/06 12:34:56;;;;;;;8.02;1.85;;;;;;;;;;5087475;28;20069;-56
2022/10/06 12:37:28;;;;;;;8.75;2.08;;;;;;;;;;5084891;28;20137;-56
2022/10/06 12:40:11;;;;;;;8.38;2.20;;;;;;;;;;5089356;28;20103;-55
2022/10/06 12:42:37;;;;;;;8.88;1.73;;;;;;;;;;5093203;28;20012;-56
2022/10/06 12:45:05;;;;;;;7.78;2.03;;;;;;;;;;5091338;28;20039;-55
2022/10/06 12:47:36;;;;;;;6.05;2.10;;;;;;;;;;5079672;28;20309;-56
2022/10/06 12:50:06;;;;;;;6.80;2.15;;;;;;;;;;5074003;28;20019;-57
2022/10/06 12:52:34;;;;;;;9.10;1.88;;;;;;;;;;5086887;28;20024;-56
2022/10/06 12:55:11;;;;;;;7.68;2.22;;;;;;;;;;5086863;28;20032;-56
2022/10/06 12:57:43;;;;;;;11.30;1.83;;;;;;;;;;5097519;28;20403;-56
2022/10/06 13:00:20;;;;;;;8.63;1.73;;;;;;;;;;5088591;28;20089;-56
2022/10/06 13:02:46;;;;;;;11.55;2.40;;;;;;;;;;5085917;28;20024;-56
2022/10/06 13:05:11;;;;;;;6.32;1.63;;;;;;;;;;5101670;28;20420;-55
2022/10/06 13:07:53;;;;;;;9.32;2.25;;;;;;;;;;5095662;28;20381;-56
2022/10/06 13:10:18;;;;;;;11.43;2.10;;;;;;;;;;5086206;28;20512;-55
2022/10/06 13:12:46;;;;;;;10.85;1.98;;;;;;;;;;5093103;28;20047;-55
2022/10/06 13:15:15;;;;;;;5.03;1.67;;;;;;;;;;5092595;28;20043;-56
2022/10/06 13:17:43;;;;;;;8.07;1.77;;;;;;;;;;5090958;28;20023;-56
2022/10/06 13:20:35;;;;;;;10.93;1.85;;;;;;;;;;5098494;28;20082;-55
2022/10/06 13:23:05;;;;;;;7.63;2.00;;;;;;;;;;5089812;28;20028;-56
2022/10/06 13:26:03;;;;;;;6.47;1.77;;;;;;;;;;5089103;28;20120;-56
2022/10/06 13:28:34;;;;;;;10.50;1.85;;;;;;;;;;5044650;28;20135;-56
2022/10/06 13:31:00;;;;;;;10.32;2.25;;;;;;;;;;5100733;28;20056;-54
2022/10/06 13:33:32;;;;;;;5.35;2.00;;;;;;;;;;5091516;28;20039;-54
2022/10/06 13:35:58;;;;;;;7.53;1.33;;;;;;;;;;5090149;28;20028;-56
2022/10/06 13:38:23;;;;;;;7.78;1.88;;;;;;;;;;5088501;28;20029;-56
2022/10/06 13:41:06;;;;;;;6.13;1.58;;;;;;;;;;5088607;28;20393;-54
2022/10/06 13:43:32;;;;;;;7.72;1.80;;;;;;;;;;5084395;28;20016;-56
2022/10/06 13:45:57;;;;;;;9.88;2.13;;;;;;;;;;5090909;28;20059;-56
2022/10/06 13:48:23;;;;;;;8.65;2.10;;;;;;;;;;5096461;28;20419;-56
2022/10/06 13:50:48;;;;;;;7.18;1.80;;;;;;;;;;5093021;28;20027;-55
2022/10/06 13:53:24;;;;;;;7.20;1.88;;;;;;;;;;5092854;28;20024;-56
2022/10/06 13:55:49;;;;;;;6.00;1.75;;;;;;;;;;5088493;28;20028;-55
2022/10/06 13:58:16;;;;;;;4.45;1.63;;;;;;;;;;5092470;28;20015;-56
2022/10/06 14:00:49;;;;;;;8.07;2.00;;;;;;;;;;5083855;28;20474;-54
2022/10/06 14:03:21;;;;;;;6.68;1.70;;;;;;;;;;5082785;28;20142;-56
2022/10/06 14:05:46;;;;;;;6.68;1.63;;;;;;;;;;5084623;28;20032;-56
2022/10/06 14:08:12;;;;;;;9.90;1.85;;;;;;;;;;5093810;28;20247;-54
2022/10/06 14:10:41;;;;;;;12.40;1.80;;;;;;;;;;5093154;28;20081;-56
2022/10/06 14:13:07;;;;;;;9.50;2.20;;;;;;;;;;5087037;28;20059;-56
2022/10/06 14:15:38;;;;;;;10.88;2.00;;;;;;;;;;5091487;28;20400;-54
2022/10/06 14:18:03;;;;;;;7.47;1.92;;;;;;;;;;5082633;28;20037;-55
2022/10/06 14:20:32;;;;;;;7.82;2.25;;;;;;;;;;5086566;28;20013;-56
2022/10/06 14:22:57;;;;;;;8.40;1.90;;;;;;;;;;5079478;28;20492;-55
2022/10/06 14:25:23;;;;;;;5.03;1.70;;;;;;;;;;5088164;28;20028;-55
2022/10/06 14:27:49;;;;;;;6.07;1.77;;;;;;;;;;5088800;28;20062;-55
2022/10/06 14:30:15;;;;;;;11.50;1.90;;;;;;;;;;5086577;28;20030;-56
2022/10/06 14:32:41;;;;;;;8.73;2.03;;;;;;;;;;5093079;28;20053;-56
2022/10/06 14:35:08;;;;;;;9.68;1.80;;;;;;;;;;5090157;28;20048;-54
2022/10/06 14:37:34;;;;;;;5.63;1.52;;;;;;;;;;5088599;28;20023;-56
2022/10/06 14:39:59;;;;;;;7.20;1.92;;;;;;;;;;5099226;28;20381;-56
2022/10/06 14:42:24;;;;;;;10.20;1.80;;;;;;;;;;5088418;28;20032;-56
2022/10/06 14:44:49;;;;;;;7.22;1.48;;;;;;;;;;5087760;28;20058;-55
2022/10/06 14:47:15;;;;;;;5.18;1.67;;;;;;;;;;5091725;28;20016;-56
2022/10/06 14:49:41;;;;;;;6.20;1.65;;;;;;;;;;5089743;28;20099;-57
2022/10/06 14:52:09;;;;;;;6.50;1.95;;;;;;;;;;5099401;28;20500;-56
2022/10/06 14:54:34;;;;;;;6.40;1.90;;;;;;;;;;5091909;28;20066;-55